Sunriver, Oregon
Current Conditions -  °F | °C
As of 9:15 PM on Friday 24 Oct 2014 (Local Time) from KBDN Reporting Station
Moderate Fog Moderate Fog  
Wind Chill: 45°   Ceiling: 100
Heat Index: 45°   Visibility: 0.25mi
Dew Point: 45°   Wind: 0mph
Humidity: 100%   Direction: NA
Pressure: 29.87"   Gusts: NA
Location:  43.844°N, 121.489°W
Report Text: KBDN 250415Z AUTO 00000KT 1/4SM FG OVC001 07/07 A2987 RMK AO2
Loading
Personal Weather Stations






























Interactive Weather Map
Tropical Storm Tracking
New forecast layout! Learn more

10-Day Weather Forecast

Advertisements
Track Severe Weather on mobile